createdAt,value
2022-08-16T00:09:21.078Z,25.19
2022-08-16T00:11:55.476Z,25.18
2022-08-16T00:14:34.822Z,25.17
2022-08-16T00:17:18.880Z,25.16
2022-08-16T00:19:53.353Z,25.14
2022-08-16T00:30:40.840Z,25.15
2022-08-16T00:31:01.013Z,25.15
2022-08-16T00:33:07.283Z,25.13
2022-08-16T00:35:39.587Z,25.13
2022-08-16T00:38:41.297Z,25.14
2022-08-16T00:41:05.948Z,25.14
2022-08-16T00:43:45.404Z,25.15
2022-08-16T00:46:33.794Z,25.11
2022-08-16T00:49:17.606Z,25.10
2022-08-16T00:51:53.705Z,25.11
2022-08-16T00:54:28.111Z,25.10
2022-08-16T00:57:01.872Z,25.07
2022-08-16T00:59:34.465Z,25.04
2022-08-16T01:02:30.087Z,25.01
2022-08-16T01:05:11.170Z,25.01
2022-08-16T01:07:50.723Z,25.02
2022-08-16T01:10:32.201Z,25.04
2022-08-16T01:13:08.109Z,25.04
2022-08-16T01:15:43.063Z,25.06
2022-08-16T01:18:40.597Z,25.06
2022-08-16T01:21:16.848Z,25.07
2022-08-16T01:24:44.529Z,25.07
2022-08-16T01:27:07.363Z,24.93
2022-08-16T01:29:57.110Z,24.63
2022-08-16T01:32:33.373Z,24.42
2022-08-16T01:35:23.678Z,24.48
2022-08-16T01:37:57.294Z,24.56
2022-08-16T01:40:33.295Z,24.63
2022-08-16T01:43:04.725Z,24.68
2022-08-16T01:45:40.938Z,24.58
2022-08-16T01:48:20.404Z,24.42
2022-08-16T01:51:08.288Z,24.33
2022-08-16T01:53:42.079Z,24.36
2022-08-16T01:56:24.563Z,24.17
2022-08-16T01:58:57.256Z,23.89
2022-08-16T02:01:29.099Z,23.89
2022-08-16T02:04:10.749Z,24.01
2022-08-16T02:06:46.040Z,24.17
2022-08-16T02:09:17.745Z,24.30
2022-08-16T02:11:53.495Z,24.30
2022-08-16T02:14:26.455Z,24.18
2022-08-16T02:17:01.053Z,24.09
2022-08-16T02:19:59.920Z,23.96
2022-08-16T02:22:33.489Z,23.80
2022-08-16T02:25:09.811Z,23.72
2022-08-16T02:28:08.341Z,23.72
2022-08-16T02:30:44.251Z,23.80
2022-08-16T02:33:15.489Z,23.93
2022-08-16T02:35:54.062Z,24.05
2022-08-16T02:38:28.134Z,24.15
2022-08-16T02:40:59.340Z,24.22
2022-08-16T02:43:45.278Z,24.30
2022-08-16T02:46:29.969Z,24.30
2022-08-16T02:49:04.448Z,24.30
2022-08-16T02:51:42.835Z,24.16
2022-08-16T02:54:14.727Z,23.98
2022-08-16T02:56:47.939Z,23.96
2022-08-16T02:59:18.576Z,23.98
2022-08-16T03:01:49.597Z,23.86
2022-08-16T03:04:48.911Z,23.75
2022-08-16T03:07:09.835Z,23.70
2022-08-16T03:09:44.312Z,23.65
2022-08-16T03:12:16.455Z,23.58
2022-08-16T03:14:46.864Z,23.59
2022-08-16T03:17:16.916Z,23.70
2022-08-16T03:19:59.501Z,23.83
2022-08-16T03:22:30.429Z,23.98
2022-08-16T03:25:09.865Z,24.08
2022-08-16T03:27:42.724Z,24.13
2022-08-16T03:30:18.654Z,24.15
2022-08-16T03:32:51.776Z,24.23
2022-08-16T03:35:32.606Z,24.31
2022-08-16T03:38:32.156Z,24.38
2022-08-16T03:41:01.016Z,24.36
2022-08-16T03:43:51.471Z,24.27
2022-08-16T03:46:47.537Z,24.17
2022-08-16T03:49:13.174Z,24.14
2022-08-16T03:51:44.085Z,24.10
2022-08-16T03:54:13.989Z,24.13
2022-08-16T03:56:57.992Z,24.18
2022-08-16T03:59:29.616Z,24.22
2022-08-16T04:02:01.535Z,24.28
2022-08-16T04:04:35.663Z,24.38
2022-08-16T04:07:08.102Z,24.49
2022-08-16T04:09:38.619Z,24.55
2022-08-16T04:12:11.384Z,24.60
2022-08-16T04:15:02.307Z,24.66
2022-08-16T04:18:00.229Z,24.71
2022-08-16T04:24:40.641Z,24.75
2022-08-16T04:27:24.590Z,24.66
2022-08-16T04:30:35.048Z,24.54
2022-08-16T04:33:08.682Z,24.40
2022-08-16T04:36:11.572Z,24.28
2022-08-16T04:39:15.752Z,24.26
2022-08-16T04:42:45.127Z,24.16
2022-08-16T04:45:35.838Z,24.09
2022-08-16T04:48:08.522Z,24.08
2022-08-16T04:51:07.857Z,24.00
2022-08-16T04:54:03.764Z,23.89
2022-08-16T04:56:43.034Z,23.84
2022-08-16T04:59:29.499Z,23.79
2022-08-16T05:02:41.577Z,23.80
2022-08-16T05:04:54.852Z,23.88
2022-08-16T05:07:38.275Z,23.85
2022-08-16T05:10:19.471Z,23.81
2022-08-16T05:12:49.600Z,23.82
2022-08-16T05:15:20.451Z,23.85
2022-08-16T05:18:05.217Z,23.94
2022-08-16T05:21:10.959Z,24.00
2022-08-16T05:23:55.747Z,24.04
2022-08-16T05:27:42.877Z,24.10
2022-08-16T05:30:34.971Z,24.05
2022-08-16T05:33:16.447Z,24.12
2022-08-16T05:37:39.748Z,24.14
2022-08-16T05:49:45.740Z,24.34
2022-08-16T05:50:05.329Z,24.33
2022-08-16T05:52:22.454Z,24.46
2022-08-16T05:55:01.504Z,24.60
2022-08-16T05:57:35.444Z,24.56
2022-08-16T06:00:09.313Z,24.51
2022-08-16T06:02:41.977Z,24.48
2022-08-16T06:05:12.606Z,24.41
2022-08-16T06:07:45.002Z,24.35
2022-08-16T06:10:32.242Z,24.32
2022-08-16T06:13:04.849Z,24.26
2022-08-16T06:15:37.566Z,24.24
2022-08-16T06:18:11.200Z,24.25
2022-08-16T06:20:55.197Z,24.23
2022-08-16T06:23:32.384Z,24.16
2022-08-16T06:26:04.539Z,24.11
2022-08-16T06:28:39.825Z,24.09
2022-08-16T06:31:18.263Z,24.09
2022-08-16T06:33:54.145Z,24.09
2022-08-16T06:36:39.669Z,24.09
2022-08-16T06:39:13.857Z,24.07
2022-08-16T06:41:49.565Z,24.08
2022-08-16T06:44:24.453Z,24.15
2022-08-16T06:47:53.746Z,24.26
2022-08-16T06:50:28.774Z,24.37
2022-08-16T06:53:15.109Z,24.44
2022-08-16T06:55:48.764Z,24.47
2022-08-16T06:58:31.325Z,24.53
2022-08-16T07:01:15.706Z,24.61
2022-08-16T07:04:31.696Z,24.68
2022-08-16T07:07:14.556Z,24.74
2022-08-16T07:09:45.099Z,24.80
2022-08-16T07:12:19.272Z,24.87
2022-08-16T07:14:49.023Z,24.91
2022-08-16T07:17:21.138Z,24.96
2022-08-16T07:20:03.778Z,25.02
2022-08-16T07:22:59.230Z,25.07
2022-08-16T07:25:31.952Z,25.15
2022-08-16T07:31:37.729Z,25.26
2022-08-16T07:41:23.214Z,25.38
2022-08-16T07:41:27.578Z,25.31
2022-08-16T07:43:52.274Z,25.40
2022-08-16T07:46:39.145Z,25.41
2022-08-16T07:49:11.501Z,25.45
2022-08-16T07:51:45.280Z,25.49
2022-08-16T07:54:21.238Z,25.53
2022-08-16T07:57:02.354Z,25.55
2022-08-16T07:59:42.833Z,25.58
2022-08-16T08:02:43.581Z,25.65
2022-08-16T08:05:16.070Z,25.71
2022-08-16T08:11:09.555Z,25.80
2022-08-16T08:13:44.949Z,25.85
2022-08-16T08:16:30.568Z,25.89
2022-08-16T08:19:02.925Z,25.96
2022-08-16T08:22:00.662Z,25.99
2022-08-16T08:24:31.512Z,26.02
2022-08-16T08:27:04.341Z,26.06
2022-08-16T08:29:40.372Z,26.10
2022-08-16T08:32:58.489Z,26.16
2022-08-16T08:35:04.989Z,26.24
2022-08-16T08:37:54.366Z,26.29
2022-08-16T08:40:29.319Z,26.32
2022-08-16T08:43:11.798Z,26.35
2022-08-16T08:45:58.301Z,26.39
2022-08-16T08:48:33.977Z,26.44
2022-08-16T08:51:11.132Z,26.50
2022-08-16T08:53:41.093Z,26.56
2022-08-16T08:56:23.278Z,26.61
2022-08-16T08:58:59.971Z,26.68
2022-08-16T09:01:43.105Z,26.75
2022-08-16T09:04:28.841Z,26.80
2022-08-16T09:07:04.817Z,26.86
2022-08-16T09:09:40.902Z,26.95
2022-08-16T09:12:35.495Z,27.05
2022-08-16T09:15:08.754Z,27.13
2022-08-16T09:17:52.387Z,27.19
2022-08-16T09:20:26.640Z,27.28
2022-08-16T09:22:58.713Z,27.34
2022-08-16T09:25:35.492Z,27.41
2022-08-16T09:28:10.713Z,27.47
2022-08-16T09:30:44.215Z,27.54
2022-08-16T09:33:18.095Z,27.60
2022-08-16T09:35:53.642Z,27.66
2022-08-16T09:38:32.244Z,27.73
2022-08-16T09:41:03.343Z,27.81
2022-08-16T09:43:58.330Z,27.87
2022-08-16T09:46:45.508Z,27.94
2022-08-16T09:49:19.938Z,28.04
2022-08-16T09:51:54.342Z,28.09
2022-08-16T09:54:32.173Z,28.15
2022-08-16T09:57:05.131Z,28.24
2022-08-16T09:59:38.525Z,28.31
2022-08-16T10:02:26.411Z,28.39
2022-08-16T10:04:59.417Z,28.46
2022-08-16T10:07:45.050Z,28.52
2022-08-16T10:10:18.867Z,28.57
2022-08-16T10:13:16.329Z,28.64
2022-08-16T10:15:54.849Z,28.72
2022-08-16T10:18:56.787Z,28.79
2022-08-16T10:21:17.862Z,28.86
2022-08-16T10:23:49.063Z,28.91
2022-08-16T10:27:18.900Z,28.99
2022-08-16T10:29:19.863Z,29.11
2022-08-16T10:31:53.087Z,29.15
2022-08-16T10:34:30.689Z,29.19
2022-08-16T10:37:01.961Z,29.23
2022-08-16T10:39:41.754Z,29.30
2022-08-16T10:42:14.447Z,29.36
2022-08-16T10:45:39.413Z,29.41
2022-08-16T10:48:00.838Z,29.45
2022-08-16T10:50:41.026Z,29.54
2022-08-16T10:53:23.029Z,29.63
2022-08-16T10:55:57.468Z,29.69
2022-08-16T10:58:34.443Z,29.72
2022-08-16T11:03:57.828Z,29.81
2022-08-16T11:06:28.935Z,29.86
2022-08-16T11:12:14.187Z,29.97
2022-08-16T11:17:36.508Z,30.13
2022-08-16T11:23:08.368Z,30.31
2022-08-16T11:31:19.171Z,30.56
2022-08-16T11:33:52.586Z,30.63
2022-08-16T11:36:28.172Z,30.73
2022-08-16T11:39:04.778Z,30.79
2022-08-16T11:48:47.864Z,31.01
2022-08-16T11:51:03.433Z,30.83
2022-08-16T11:51:19.630Z,31.08
2022-08-16T11:54:23.491Z,31.13
2022-08-16T11:57:11.497Z,31.20
2022-08-16T11:59:58.007Z,31.25
2022-08-16T12:02:37.279Z,31.32
2022-08-16T12:05:23.158Z,31.41
2022-08-16T12:08:07.337Z,31.52
2022-08-16T12:11:03.875Z,31.61
2022-08-16T12:13:41.478Z,31.68
2022-08-16T12:17:46.459Z,31.77
2022-08-16T12:20:18.573Z,31.86
2022-08-16T12:26:34.865Z,32.11
2022-08-16T12:30:21.804Z,32.23
2022-08-16T12:40:38.733Z,32.19
2022-08-16T12:43:16.043Z,32.26
2022-08-16T12:45:49.342Z,32.41
2022-08-16T12:48:50.793Z,32.58
2022-08-16T12:51:30.586Z,32.78
2022-08-16T12:54:09.266Z,33.00
2022-08-16T12:57:00.437Z,33.23
2022-08-16T12:59:33.459Z,33.50
2022-08-16T13:02:22.785Z,33.69
2022-08-16T13:05:02.979Z,33.84
2022-08-16T13:07:51.195Z,33.98
2022-08-16T13:10:36.822Z,34.16
2022-08-16T13:13:09.228Z,34.30
2022-08-16T13:15:51.492Z,34.33
2022-08-16T13:18:34.195Z,34.40
2022-08-16T13:21:07.404Z,34.40
2022-08-16T13:23:43.234Z,34.51
2022-08-16T13:26:17.770Z,34.60
2022-08-16T13:28:48.112Z,34.62
2022-08-16T13:31:17.923Z,34.53
2022-08-16T13:33:47.351Z,34.38
2022-08-16T13:36:32.153Z,34.27
2022-08-16T13:39:09.333Z,34.32
2022-08-16T13:41:40.180Z,34.48
2022-08-16T13:44:10.290Z,34.58
2022-08-16T13:46:41.228Z,34.62
2022-08-16T13:49:14.980Z,34.55
2022-08-16T13:51:44.865Z,34.46
2022-08-16T13:57:05.465Z,34.41
2022-08-16T13:59:38.041Z,34.42
2022-08-16T14:02:11.333Z,34.48
2022-08-16T14:05:02.724Z,34.62
2022-08-16T14:07:40.470Z,34.84
2022-08-16T14:10:16.435Z,35.10
2022-08-16T14:12:45.904Z,35.15
2022-08-16T14:15:18.302Z,35.00
2022-08-16T14:18:17.464Z,34.86
2022-08-16T14:20:38.705Z,34.66
2022-08-16T14:23:07.947Z,34.44
2022-08-16T14:25:39.831Z,34.19
2022-08-16T14:28:10.172Z,33.99
2022-08-16T14:30:42.391Z,33.82
2022-08-16T14:33:11.849Z,33.63
2022-08-16T14:35:50.325Z,33.44
2022-08-16T14:38:23.736Z,33.20
2022-08-16T14:40:55.123Z,32.94
2022-08-16T14:43:25.728Z,32.81
2022-08-16T14:45:59.461Z,32.79
2022-08-16T14:48:29.054Z,32.77
2022-08-16T14:51:02.058Z,32.73
2022-08-16T14:53:35.319Z,32.69
2022-08-16T14:56:38.447Z,32.61
2022-08-16T14:59:12.452Z,32.52
2022-08-16T15:02:01.959Z,32.45
2022-08-16T15:07:52.135Z,32.40
2022-08-16T15:10:24.317Z,32.43
2022-08-16T15:12:59.250Z,32.46
2022-08-16T15:15:35.269Z,32.43
2022-08-16T15:18:06.993Z,32.43
2022-08-16T15:20:43.948Z,32.40
2022-08-16T15:23:15.178Z,32.38
2022-08-16T15:26:34.833Z,32.34
2022-08-16T15:29:23.181Z,32.25
2022-08-16T15:32:00.635Z,32.18
2022-08-16T15:34:31.287Z,32.11
2022-08-16T15:37:02.779Z,32.04
2022-08-16T15:39:38.830Z,31.96
2022-08-16T15:42:27.432Z,31.95
2022-08-16T15:45:00.433Z,31.99
2022-08-16T15:47:33.556Z,32.05
2022-08-16T15:50:11.575Z,32.15
2022-08-16T15:52:48.206Z,32.33
2022-08-16T15:59:17.310Z,32.31
2022-08-16T16:06:12.969Z,32.35
2022-08-16T16:08:44.981Z,32.36
2022-08-16T16:14:44.663Z,32.35
2022-08-16T16:14:52.989Z,32.31
2022-08-16T16:17:31.170Z,32.22
2022-08-16T16:20:01.472Z,32.17
2022-08-16T16:22:52.012Z,32.20
2022-08-16T16:25:23.928Z,32.28
2022-08-16T16:27:55.318Z,32.35
2022-08-16T16:30:44.947Z,32.41
2022-08-16T16:33:20.847Z,32.47
2022-08-16T16:35:55.143Z,32.47
2022-08-16T16:38:32.266Z,32.47
2022-08-16T16:41:09.217Z,32.48
2022-08-16T16:44:00.150Z,32.48
2022-08-16T16:46:43.205Z,32.50
2022-08-16T16:52:44.442Z,32.52
2022-08-16T16:52:45.218Z,32.53
2022-08-16T16:55:22.259Z,32.50
2022-08-16T16:58:28.957Z,32.47
2022-08-16T17:01:05.732Z,32.39
2022-08-16T17:03:41.325Z,32.31
2022-08-16T17:10:12.740Z,31.97
2022-08-16T17:13:21.898Z,31.86
2022-08-16T17:15:52.374Z,31.76
2022-08-16T17:21:37.140Z,31.57
2022-08-16T17:23:14.543Z,31.23
2022-08-16T17:25:52.073Z,31.07
2022-08-16T17:28:58.422Z,30.94
2022-08-16T17:31:17.083Z,30.82
2022-08-16T17:34:30.660Z,30.64
2022-08-16T17:51:43.430Z,29.94
2022-08-16T17:54:37.047Z,29.81
2022-08-16T17:57:16.968Z,29.68
2022-08-16T18:26:44.607Z,29.11
2022-08-16T18:26:46.496Z,28.91
2022-08-16T18:29:27.097Z,28.78
2022-08-16T18:32:44.067Z,28.66
2022-08-16T18:35:15.844Z,28.55
2022-08-16T18:37:52.472Z,28.47
2022-08-16T19:30:12.430Z,27.34
2022-08-16T20:22:53.952Z,26.96
2022-08-16T20:30:13.928Z,26.84
2022-08-16T20:35:45.561Z,26.64
2022-08-16T20:36:25.811Z,26.53
2022-08-16T20:42:42.330Z,26.42
2022-08-16T20:45:42.299Z,26.41
2022-08-16T20:48:26.939Z,26.41
2022-08-16T20:50:58.184Z,26.44
2022-08-16T20:56:59.619Z,26.54
2022-08-16T20:59:36.302Z,26.53
2022-08-16T21:03:04.777Z,26.46
2022-08-16T21:05:48.498Z,26.42
2022-08-16T21:06:23.716Z,26.50
2022-08-16T21:13:25.946Z,26.42
2022-08-16T22:02:46.668Z,26.57
2022-08-16T22:05:19.976Z,26.62
2022-08-16T22:08:05.320Z,26.64
2022-08-16T22:11:07.444Z,26.65
2022-08-16T22:13:30.309Z,26.65
2022-08-16T22:16:03.622Z,26.66
2022-08-16T22:18:33.055Z,26.65
2022-08-16T22:21:02.944Z,26.61
2022-08-16T22:23:34.159Z,26.55
2022-08-16T22:26:03.677Z,26.48
2022-08-16T22:28:33.350Z,26.43
2022-08-16T22:31:02.764Z,26.41
2022-08-16T22:33:34.158Z,26.35
2022-08-16T22:36:08.112Z,26.14
2022-08-16T22:38:54.504Z,26.00
2022-08-16T22:41:30.307Z,25.97
2022-08-16T22:44:05.074Z,25.85
2022-08-16T22:46:38.314Z,25.77
2022-08-16T22:49:13.466Z,25.78
2022-08-16T22:51:42.725Z,25.78
2022-08-16T22:54:41.279Z,25.72
2022-08-16T22:57:07.991Z,25.73
2022-08-16T23:00:05.805Z,25.76
2022-08-16T23:02:35.019Z,25.82
2022-08-16T23:05:10.255Z,25.81
2022-08-16T23:07:39.738Z,25.72
2022-08-16T23:10:10.406Z,25.73
2022-08-16T23:12:49.801Z,25.78
2022-08-16T23:15:23.207Z,25.78
2022-08-16T23:17:55.293Z,25.75
2022-08-16T23:20:27.252Z,25.74
2022-08-16T23:23:18.981Z,25.78
2022-08-16T23:25:51.841Z,25.80
2022-08-16T23:28:27.248Z,25.84
2022-08-16T23:30:58.419Z,25.88
2022-08-16T23:33:28.995Z,25.91
2022-08-16T23:36:00.808Z,25.89
2022-08-16T23:41:50.829Z,25.87
2022-08-16T23:41:56.583Z,25.84
2022-08-16T23:44:42.325Z,25.77
2022-08-16T23:47:15.385Z,25.68
2022-08-16T23:50:01.413Z,25.65
2022-08-16T23:52:42.166Z,25.64
2022-08-16T23:55:22.529Z,25.64
2022-08-16T23:57:52.398Z,25.55
